createdAt,value
2019-05-20T00:04:25.381Z,24.19
2019-05-20T00:09:34.245Z,24.43
2019-05-20T00:14:43.220Z,26.39
2019-05-20T00:19:52.096Z,26.31
2019-05-20T00:25:01.033Z,26.58
2019-05-20T00:30:09.873Z,26.92
2019-05-20T00:35:18.730Z,27.32
2019-05-20T00:40:27.608Z,25.01
2019-05-20T00:45:36.480Z,28.64
2019-05-20T00:50:45.396Z,27.87
2019-05-20T00:55:54.221Z,25.34
2019-05-20T01:01:03.147Z,28.57
2019-05-20T01:06:12.073Z,30.63
2019-05-20T01:11:20.979Z,29.09
2019-05-20T01:16:29.822Z,31.35
2019-05-20T01:21:38.770Z,32.93
2019-05-20T01:26:47.647Z,32.84
2019-05-20T01:31:56.480Z,35.34
2019-05-20T01:37:05.440Z,30.76
2019-05-20T01:42:14.283Z,32.65
2019-05-20T01:47:23.134Z,35.95
2019-05-20T01:52:31.984Z,32.88
2019-05-20T01:57:40.832Z,35.64
2019-05-20T02:02:54.936Z,35.28
2019-05-20T02:18:10.623Z,39.64
2019-05-20T02:23:19.479Z,34.91
2019-05-20T02:28:28.316Z,37.34
2019-05-20T02:33:51.118Z,35.58
2019-05-20T02:38:45.520Z,39.70
2019-05-20T02:43:54.341Z,38.94
2019-05-20T02:49:03.245Z,38.19
2019-05-20T02:54:12.101Z,39.76
2019-05-20T02:59:20.953Z,40.12
2019-05-20T03:04:33.904Z,36.87
2019-05-20T03:09:32.779Z,38.07
2019-05-20T03:14:41.654Z,43.68
2019-05-20T03:19:50.556Z,43.24
2019-05-20T03:24:59.438Z,44.18
2019-05-20T03:30:08.450Z,41.58
2019-05-20T03:35:17.172Z,44.70
2019-05-20T03:40:26.064Z,42.54
2019-05-20T03:45:35.002Z,43.40
2019-05-20T03:50:43.906Z,40.17
2019-05-20T03:55:52.945Z,35.61
2019-05-20T04:01:01.792Z,36.10
2019-05-20T04:06:10.700Z,35.61
2019-05-20T04:11:19.513Z,35.62
2019-05-20T04:16:28.478Z,35.09
2019-05-20T04:21:37.324Z,34.81
2019-05-20T04:26:46.198Z,33.05
2019-05-20T04:31:55.139Z,33.47
2019-05-20T04:37:03.956Z,32.86
2019-05-20T04:42:12.893Z,33.89
2019-05-20T04:47:21.736Z,33.04
2019-05-20T04:52:30.587Z,37.05
2019-05-20T04:57:39.433Z,32.06
2019-05-20T05:02:48.383Z,34.45
2019-05-20T05:07:57.244Z,45.20
2019-05-20T05:13:06.176Z,53.52
2019-05-20T05:18:21.946Z,40.28
2019-05-20T05:23:20.785Z,39.24
2019-05-20T05:28:29.637Z,36.93
2019-05-20T05:33:38.493Z,32.97
2019-05-20T05:38:47.342Z,33.09
2019-05-20T05:43:56.189Z,30.52
2019-05-20T05:49:05.055Z,31.03
2019-05-20T05:54:13.975Z,31.92
2019-05-20T05:59:22.764Z,31.62
2019-05-20T06:04:31.609Z,33.09
2019-05-20T06:09:40.438Z,29.73
2019-05-20T06:14:49.280Z,32.60
2019-05-20T06:19:58.120Z,31.99
2019-05-20T06:25:07.046Z,29.20
2019-05-20T06:30:15.913Z,29.85
2019-05-20T06:35:24.785Z,25.76
2019-05-20T06:40:33.690Z,21.23
2019-05-20T06:45:42.631Z,22.20
2019-05-20T06:50:51.465Z,20.64
2019-05-20T06:56:00.309Z,24.72
2019-05-20T07:01:09.147Z,26.46
2019-05-20T07:06:18.008Z,26.29
2019-05-20T07:11:26.866Z,26.81
2019-05-20T07:16:35.773Z,29.64
2019-05-20T07:21:44.613Z,32.74
2019-05-20T07:26:53.500Z,29.14
2019-05-20T07:32:02.393Z,28.28
2019-05-20T07:37:11.338Z,28.91
2019-05-20T07:42:20.170Z,34.37
2019-05-20T07:47:29.057Z,39.65
2019-05-20T07:52:37.907Z,40.34
2019-05-20T07:57:47.253Z,49.94
2019-05-20T08:02:55.141Z,37.17
2019-05-20T08:08:04.038Z,33.93
2019-05-20T08:13:12.893Z,30.33
2019-05-20T08:18:21.760Z,25.41
2019-05-20T08:23:30.612Z,25.29
2019-05-20T08:28:39.535Z,25.64
2019-05-20T08:33:48.416Z,20.90
2019-05-20T08:38:57.269Z,24.39
2019-05-20T08:44:06.156Z,27.81
2019-05-20T08:49:15.096Z,32.12
2019-05-20T08:54:23.940Z,20.06
2019-05-20T08:59:32.827Z,24.19
2019-05-20T09:04:41.697Z,26.05
2019-05-20T09:09:50.581Z,28.31
2019-05-20T09:14:59.452Z,36.33
2019-05-20T09:20:08.296Z,29.81
2019-05-20T09:25:17.192Z,29.68
2019-05-20T09:30:26.027Z,27.81
2019-05-20T09:35:34.842Z,25.68
2019-05-20T09:40:43.791Z,31.64
2019-05-20T09:46:06.348Z,30.85
2019-05-20T09:51:00.976Z,28.63
2019-05-20T09:56:09.813Z,26.03
2019-05-20T10:01:18.685Z,31.53
2019-05-20T10:06:27.519Z,24.63
2019-05-20T10:11:36.404Z,21.53
2019-05-20T10:16:45.280Z,19.62
2019-05-20T10:21:54.143Z,17.72
2019-05-20T10:27:03.032Z,20.54
2019-05-20T10:32:11.932Z,21.06
2019-05-20T10:37:20.814Z,21.66
2019-05-20T10:42:29.631Z,22.31
2019-05-20T10:47:38.468Z,22.15
2019-05-20T10:52:47.367Z,23.22
2019-05-20T10:57:56.217Z,21.90
2019-05-20T11:03:05.143Z,22.42
2019-05-20T11:08:13.965Z,24.37
2019-05-20T11:13:22.843Z,22.98
2019-05-20T11:18:31.771Z,24.52
2019-05-20T11:23:40.629Z,21.46
2019-05-20T11:28:49.513Z,21.96
2019-05-20T11:33:58.391Z,26.18
2019-05-20T11:39:07.470Z,25.62
2019-05-20T11:44:16.073Z,23.84
2019-05-20T11:49:28.862Z,22.05
2019-05-20T11:54:33.379Z,22.87
2019-05-20T11:59:42.282Z,26.12
2019-05-20T12:04:51.101Z,24.07
2019-05-20T12:09:59.961Z,25.58
2019-05-20T12:15:08.899Z,26.03
2019-05-20T12:20:17.737Z,26.10
2019-05-20T12:25:26.687Z,24.69
2019-05-20T12:30:35.680Z,31.62
2019-05-20T12:35:44.472Z,26.66
2019-05-20T12:40:53.310Z,30.45
2019-05-20T12:46:02.185Z,33.55
2019-05-20T12:51:14.321Z,32.32
2019-05-20T12:56:19.929Z,34.24
2019-05-20T13:01:27.899Z,36.79
2019-05-20T13:06:36.803Z,35.16
2019-05-20T13:11:45.651Z,29.96
2019-05-20T13:16:54.492Z,27.38
2019-05-20T13:22:03.497Z,29.07
2019-05-20T13:27:12.301Z,27.48
2019-05-20T13:32:21.212Z,33.22
2019-05-20T13:37:30.064Z,29.43
2019-05-20T13:42:39.032Z,27.95
2019-05-20T13:47:47.924Z,26.93
2019-05-20T13:52:56.767Z,26.12
2019-05-20T13:58:05.655Z,28.65
2019-05-20T14:03:14.549Z,27.18
2019-05-20T14:08:23.425Z,23.51
2019-05-20T14:13:32.329Z,23.78
2019-05-20T14:18:41.203Z,30.61
2019-05-20T14:23:50.124Z,34.66
2019-05-20T14:28:59.050Z,34.80
2019-05-20T14:34:07.904Z,45.41
2019-05-20T14:39:16.783Z,41.90
2019-05-20T14:44:25.713Z,51.79
2019-05-20T14:49:34.596Z,44.73
2019-05-20T14:54:43.481Z,45.05
2019-05-20T14:59:52.415Z,41.22
2019-05-20T15:05:01.249Z,41.62
2019-05-20T15:10:10.191Z,43.58
2019-05-20T15:15:19.033Z,46.57
2019-05-20T15:20:27.860Z,47.10
2019-05-20T15:25:36.739Z,49.73
2019-05-20T15:30:45.569Z,41.77
2019-05-20T15:35:54.391Z,40.18
2019-05-20T15:41:03.275Z,37.05
2019-05-20T15:46:12.127Z,32.17
2019-05-20T15:51:21.069Z,33.89
2019-05-20T15:56:29.953Z,32.25
2019-05-20T16:01:38.787Z,27.71
2019-05-20T16:06:47.636Z,26.34
2019-05-20T16:11:56.472Z,28.08
2019-05-20T16:17:05.313Z,28.53
2019-05-20T16:22:14.165Z,29.95
2019-05-20T16:27:23.044Z,27.03
2019-05-20T16:32:31.913Z,28.82
2019-05-20T16:37:40.797Z,29.83
2019-05-20T16:42:49.642Z,29.42
2019-05-20T16:47:58.542Z,31.87
2019-05-20T16:53:07.404Z,31.53
2019-05-20T16:58:16.238Z,33.10
2019-05-20T17:03:25.116Z,32.38
2019-05-20T17:08:33.977Z,30.29
2019-05-20T17:13:42.854Z,31.65
2019-05-20T17:18:51.740Z,30.36
2019-05-20T17:24:00.598Z,33.05
2019-05-20T17:29:09.482Z,52.59
2019-05-20T17:34:18.365Z,54.07
2019-05-20T17:39:27.285Z,40.28
2019-05-20T17:44:36.076Z,39.77
2019-05-20T17:49:44.925Z,31.59
2019-05-20T17:54:53.801Z,36.76
2019-05-20T18:00:03.047Z,29.45
2019-05-20T18:05:14.680Z,26.09
2019-05-20T18:10:20.012Z,26.36
2019-05-20T18:15:28.840Z,31.67
2019-05-20T18:20:37.709Z,26.10
2019-05-20T18:25:46.600Z,21.77
2019-05-20T18:30:55.513Z,22.05
2019-05-20T18:36:04.471Z,19.98
2019-05-20T18:41:13.346Z,21.79
2019-05-20T18:46:22.216Z,21.74
2019-05-20T18:51:31.030Z,22.24
2019-05-20T18:56:39.899Z,23.44
2019-05-20T19:02:03.860Z,24.48
2019-05-20T19:06:57.145Z,29.38
2019-05-20T19:12:05.969Z,28.90
2019-05-20T19:17:14.902Z,26.61
2019-05-20T19:22:23.776Z,29.38
2019-05-20T19:27:32.725Z,29.40
2019-05-20T19:32:41.635Z,31.19
2019-05-20T19:37:50.513Z,26.41
2019-05-20T19:42:59.411Z,30.47
2019-05-20T19:48:08.328Z,28.10
2019-05-20T19:53:17.209Z,30.65
2019-05-20T19:58:26.209Z,29.09
2019-05-20T20:03:35.017Z,32.61
2019-05-20T20:08:44.005Z,32.53
2019-05-20T20:13:52.868Z,40.94
2019-05-20T20:19:01.742Z,45.09
2019-05-20T20:24:10.586Z,36.53
2019-05-20T20:29:19.454Z,34.07
2019-05-20T20:34:30.532Z,32.16
2019-05-20T20:39:36.777Z,29.75
2019-05-20T20:44:45.642Z,29.56
2019-05-20T20:49:54.521Z,25.49
2019-05-20T20:55:03.428Z,25.49
2019-05-20T21:00:12.548Z,23.14
2019-05-20T21:05:21.381Z,22.15
2019-05-20T21:10:30.336Z,21.75
2019-05-20T21:15:39.169Z,23.61
2019-05-20T21:20:48.207Z,27.09
2019-05-20T21:25:57.056Z,31.68
2019-05-20T21:31:05.909Z,28.24
2019-05-20T21:36:14.778Z,26.05
2019-05-20T21:41:23.689Z,25.96
2019-05-20T21:46:32.517Z,24.02
2019-05-20T21:51:41.387Z,27.16
2019-05-20T21:56:50.312Z,25.53
2019-05-20T22:01:59.208Z,37.72
2019-05-20T22:07:08.119Z,33.90
2019-05-20T22:12:17.085Z,26.70
2019-05-20T22:17:26.001Z,26.54
2019-05-20T22:22:34.962Z,26.79
2019-05-20T22:27:43.836Z,28.97
2019-05-20T22:32:52.771Z,30.27
2019-05-20T22:38:01.659Z,28.77
2019-05-20T22:43:10.570Z,27.85
2019-05-20T22:48:19.524Z,24.86
2019-05-20T22:53:28.430Z,26.44
2019-05-20T22:58:38.594Z,29.82
2019-05-20T23:03:56.159Z,28.73
2019-05-20T23:08:54.228Z,28.79
2019-05-20T23:14:03.116Z,25.72
2019-05-20T23:19:12.029Z,27.00
2019-05-20T23:24:21.008Z,27.91
2019-05-20T23:29:29.857Z,24.60
2019-05-20T23:34:39.812Z,25.64
2019-05-20T23:39:49.744Z,25.69
2019-05-20T23:44:58.600Z,27.23
2019-05-20T23:50:07.537Z,26.15
2019-05-20T23:55:16.534Z,26.97
